createdAt,value
2023-03-29T00:00:14.465Z,8.60
2023-03-29T00:02:17.474Z,8.70
2023-03-29T00:04:20.770Z,8.80
2023-03-29T00:06:23.563Z,8.80
2023-03-29T00:08:27.705Z,8.80
2023-03-29T00:10:32.640Z,8.80
2023-03-29T00:12:35.513Z,8.70
2023-03-29T00:14:38.541Z,8.80
2023-03-29T00:16:41.545Z,8.80
2023-03-29T00:18:45.183Z,8.90
2023-03-29T00:20:47.952Z,8.90
2023-03-29T00:22:51.266Z,8.90
2023-03-29T00:24:55.803Z,9.00
2023-03-29T00:26:58.763Z,8.90
2023-03-29T00:29:01.609Z,8.80
2023-03-29T00:31:09.977Z,8.80
2023-03-29T00:33:13.605Z,8.90
2023-03-29T00:35:16.576Z,8.80
2023-03-29T00:37:20.128Z,8.80
2023-03-29T00:39:22.976Z,8.90
2023-03-29T00:41:27.214Z,8.80
2023-03-29T00:43:30.250Z,8.80
2023-03-29T00:45:36.003Z,8.80
2023-03-29T00:47:43.031Z,8.90
2023-03-29T00:49:47.105Z,8.80
2023-03-29T00:51:50.109Z,8.70
2023-03-29T00:53:57.042Z,8.80
2023-03-29T00:56:04.403Z,8.80
2023-03-29T00:58:12.997Z,8.80
2023-03-29T01:00:18.197Z,8.80
2023-03-29T01:02:25.994Z,8.70
2023-03-29T01:04:36.363Z,8.70
2023-03-29T01:06:43.521Z,8.70
2023-03-29T01:08:51.922Z,8.70
2023-03-29T01:10:58.765Z,8.50
2023-03-29T01:13:07.394Z,8.60
2023-03-29T01:15:14.025Z,8.60
2023-03-29T01:17:16.908Z,8.50
2023-03-29T01:19:22.319Z,8.50
2023-03-29T01:21:30.341Z,8.50
2023-03-29T01:23:51.078Z,8.50
2023-03-29T01:26:02.967Z,8.50
2023-03-29T01:28:10.112Z,8.50
2023-03-29T01:30:17.345Z,8.60
2023-03-29T01:32:25.104Z,8.60
2023-03-29T01:34:34.296Z,8.70
2023-03-29T01:36:40.574Z,8.80
2023-03-29T01:38:47.413Z,8.80
2023-03-29T01:40:50.325Z,8.80
2023-03-29T01:43:00.793Z,8.80
2023-03-29T01:45:14.347Z,8.80
2023-03-29T01:47:27.231Z,8.80
2023-03-29T01:49:35.780Z,8.70
2023-03-29T01:51:41.444Z,8.80
2023-03-29T01:53:50.856Z,8.80
2023-03-29T01:55:56.924Z,8.90
2023-03-29T01:58:02.285Z,8.80
2023-03-29T02:00:10.768Z,8.80
2023-03-29T02:02:17.152Z,8.80
2023-03-29T02:04:24.720Z,8.90
2023-03-29T02:06:31.397Z,8.90
2023-03-29T02:08:35.726Z,8.90
2023-03-29T02:10:39.281Z,8.90
2023-03-29T02:12:42.422Z,8.80
2023-03-29T02:14:45.382Z,8.80
2023-03-29T02:16:50.145Z,8.80
2023-03-29T02:18:54.165Z,8.80
2023-03-29T02:20:58.900Z,8.70
2023-03-29T02:23:05.846Z,8.70
2023-03-29T02:25:09.735Z,8.80
2023-03-29T02:27:12.644Z,8.80
2023-03-29T02:29:15.704Z,8.70
2023-03-29T02:31:24.800Z,8.70
2023-03-29T02:33:35.370Z,8.70
2023-03-29T02:35:44.909Z,8.70
2023-03-29T02:37:52.873Z,8.70
2023-03-29T02:39:55.724Z,8.70
2023-03-29T02:41:59.166Z,8.70
2023-03-29T02:44:04.974Z,8.70
2023-03-29T02:46:08.848Z,8.60
2023-03-29T02:48:16.250Z,8.70
2023-03-29T02:50:21.361Z,8.70
2023-03-29T02:52:29.436Z,8.70
2023-03-29T02:54:32.963Z,8.70
2023-03-29T02:56:43.347Z,8.80
2023-03-29T02:58:46.222Z,8.70
2023-03-29T03:00:50.306Z,8.80
2023-03-29T03:02:53.240Z,8.80
2023-03-29T03:04:56.103Z,8.70
2023-03-29T03:07:00.239Z,8.80
2023-03-29T03:09:03.191Z,8.80
2023-03-29T03:11:07.012Z,8.90
2023-03-29T03:13:09.850Z,8.90
2023-03-29T03:15:13.417Z,8.80
2023-03-29T03:17:18.752Z,8.80
2023-03-29T03:19:21.676Z,8.80
2023-03-29T03:21:24.603Z,8.70
2023-03-29T03:23:29.581Z,8.70
2023-03-29T03:25:32.948Z,8.70
2023-03-29T03:27:36.970Z,8.70
2023-03-29T03:29:41.429Z,8.70
2023-03-29T03:31:44.710Z,8.70
2023-03-29T03:33:47.677Z,8.60
2023-03-29T03:35:50.704Z,8.60
2023-03-29T03:37:53.487Z,8.60
2023-03-29T03:39:57.726Z,8.70
2023-03-29T03:42:00.748Z,8.70
2023-03-29T03:44:03.709Z,8.60
2023-03-29T03:46:08.556Z,8.60
2023-03-29T03:48:11.681Z,8.70
2023-03-29T03:50:14.704Z,8.60
2023-03-29T03:52:17.482Z,8.60
2023-03-29T03:54:20.498Z,8.50
2023-03-29T03:56:25.926Z,8.60
2023-03-29T03:58:29.877Z,8.60
2023-03-29T04:00:33.341Z,8.60
2023-03-29T04:02:36.255Z,8.60
2023-03-29T04:04:40.501Z,8.60
2023-03-29T04:06:44.156Z,8.60
2023-03-29T04:08:48.228Z,8.70
2023-03-29T04:10:54.043Z,8.60
2023-03-29T04:13:02.350Z,8.70
2023-03-29T04:15:06.030Z,8.70
2023-03-29T04:17:08.871Z,8.70
2023-03-29T04:19:12.117Z,8.70
2023-03-29T04:21:14.992Z,8.70
2023-03-29T04:23:17.886Z,8.70
2023-03-29T04:25:21.508Z,8.80
2023-03-29T04:27:24.339Z,8.80
2023-03-29T04:29:28.501Z,8.60
2023-03-29T04:31:31.861Z,8.60
2023-03-29T04:33:34.750Z,8.70
2023-03-29T04:35:37.849Z,8.60
2023-03-29T04:37:41.849Z,8.60
2023-03-29T04:39:44.959Z,8.60
2023-03-29T04:41:48.577Z,8.60
2023-03-29T04:43:52.161Z,8.60
2023-03-29T04:45:56.538Z,8.60
2023-03-29T04:48:00.526Z,8.60
2023-03-29T04:50:03.373Z,8.60
2023-03-29T04:52:06.485Z,8.60
2023-03-29T04:54:09.437Z,8.70
2023-03-29T04:56:12.391Z,8.70
2023-03-29T04:58:15.549Z,8.70
2023-03-29T05:00:20.298Z,8.60
2023-03-29T05:02:24.959Z,8.50
2023-03-29T05:04:28.463Z,8.40
2023-03-29T05:06:31.400Z,8.50
2023-03-29T05:08:34.848Z,8.50
2023-03-29T05:10:38.084Z,8.50
2023-03-29T05:12:41.081Z,8.50
2023-03-29T05:14:43.930Z,8.50
2023-03-29T05:16:46.727Z,8.40
2023-03-29T05:18:51.739Z,8.40
2023-03-29T05:20:54.609Z,8.40
2023-03-29T05:22:57.903Z,8.40
2023-03-29T05:25:00.660Z,8.30
2023-03-29T05:27:03.679Z,8.40
2023-03-29T05:29:08.898Z,8.40
2023-03-29T05:31:13.661Z,8.50
2023-03-29T05:33:18.449Z,8.60
2023-03-29T05:35:24.373Z,8.60
2023-03-29T05:37:28.604Z,8.70
2023-03-29T05:39:31.574Z,8.70
2023-03-29T05:41:34.666Z,8.80
2023-03-29T05:43:37.525Z,8.70
2023-03-29T05:45:40.396Z,8.80
2023-03-29T05:47:43.331Z,8.80
2023-03-29T05:49:46.148Z,8.80
2023-03-29T05:51:52.008Z,8.90
2023-03-29T05:53:54.902Z,9.00
2023-03-29T05:55:57.717Z,9.10
2023-03-29T05:58:01.071Z,9.00
2023-03-29T06:00:17.746Z,9.10
2023-03-29T06:02:21.389Z,9.10
2023-03-29T06:04:24.585Z,9.10
2023-03-29T06:06:27.859Z,9.10
2023-03-29T06:08:32.905Z,9.10
2023-03-29T06:10:36.997Z,9.20
2023-03-29T06:12:39.831Z,9.20
2023-03-29T06:14:42.703Z,9.30
2023-03-29T06:16:46.452Z,9.30
2023-03-29T06:18:49.307Z,9.40
2023-03-29T06:20:53.412Z,9.30
2023-03-29T06:22:56.945Z,9.40
2023-03-29T06:25:01.764Z,9.40
2023-03-29T06:27:04.721Z,9.50
2023-03-29T06:29:08.413Z,9.60
2023-03-29T06:31:13.183Z,9.60
2023-03-29T06:33:16.709Z,9.60
2023-03-29T06:35:19.543Z,9.60
2023-03-29T06:37:23.262Z,9.70
2023-03-29T06:39:26.877Z,9.70
2023-03-29T06:41:31.541Z,9.80
2023-03-29T06:43:34.822Z,9.90
2023-03-29T06:45:39.815Z,10.00
2023-03-29T06:47:42.707Z,10.10
2023-03-29T06:49:45.879Z,10.10
2023-03-29T06:51:48.722Z,10.10
2023-03-29T06:53:51.553Z,10.20
2023-03-29T06:55:54.442Z,10.20
2023-03-29T06:58:00.934Z,10.20
2023-03-29T07:00:13.783Z,10.30
2023-03-29T07:02:17.436Z,10.20
2023-03-29T07:04:20.775Z,10.20
2023-03-29T07:06:23.648Z,10.20
2023-03-29T07:08:31.431Z,10.20
2023-03-29T07:10:39.352Z,10.20
2023-03-29T07:12:44.686Z,10.20
2023-03-29T07:14:48.837Z,10.30
2023-03-29T07:16:52.292Z,10.30
2023-03-29T07:18:55.379Z,10.30
2023-03-29T07:20:58.217Z,10.30
2023-03-29T07:23:01.238Z,10.30
2023-03-29T07:25:04.347Z,10.40
2023-03-29T07:27:08.915Z,10.50
2023-03-29T07:29:11.753Z,10.50
2023-03-29T07:31:17.404Z,10.60
2023-03-29T07:33:20.316Z,10.60
2023-03-29T07:35:24.893Z,10.60
2023-03-29T07:37:28.433Z,10.60
2023-03-29T07:39:31.169Z,10.70
2023-03-29T07:41:34.111Z,10.60
2023-03-29T07:43:36.922Z,10.70
2023-03-29T07:45:42.277Z,10.80
2023-03-29T07:47:46.817Z,10.90
2023-03-29T07:49:49.925Z,11.00
2023-03-29T07:51:52.731Z,11.10
2023-03-29T07:53:55.528Z,11.20
2023-03-29T07:55:58.338Z,11.30
2023-03-29T07:58:01.563Z,11.50
2023-03-29T08:00:15.190Z,11.60
2023-03-29T08:02:18.026Z,11.80
2023-03-29T08:04:22.404Z,12.00
2023-03-29T08:06:26.653Z,12.10
2023-03-29T08:08:29.691Z,12.20
2023-03-29T08:10:34.190Z,12.50
2023-03-29T08:12:37.336Z,12.60
2023-03-29T08:14:40.240Z,12.70
2023-03-29T08:16:43.213Z,12.60
2023-03-29T08:18:46.207Z,12.30
2023-03-29T08:20:51.749Z,12.40
2023-03-29T08:22:56.171Z,12.40
2023-03-29T08:24:58.969Z,12.40
2023-03-29T08:27:01.770Z,12.50
2023-03-29T08:29:05.013Z,12.50
2023-03-29T08:31:08.949Z,12.60
2023-03-29T08:33:12.251Z,12.70
2023-03-29T08:35:15.113Z,12.60
2023-03-29T08:37:19.727Z,12.60
2023-03-29T08:39:22.561Z,12.70
2023-03-29T08:41:36.621Z,12.90
2023-03-29T08:44:02.710Z,12.90
2023-03-29T08:46:17.948Z,13.20
2023-03-29T08:48:27.313Z,13.30
2023-03-29T08:50:36.590Z,13.30
2023-03-29T08:52:45.891Z,13.50
2023-03-29T08:54:52.749Z,13.50
2023-03-29T08:57:03.141Z,13.60
2023-03-29T08:59:13.329Z,13.50
2023-03-29T09:01:16.353Z,13.30
2023-03-29T09:03:23.589Z,13.30
2023-03-29T09:05:31.146Z,13.20
2023-03-29T09:07:33.960Z,13.20
2023-03-29T09:09:38.594Z,13.20
2023-03-29T09:11:56.590Z,13.40
2023-03-29T09:14:10.953Z,13.40
2023-03-29T09:16:21.937Z,13.40
2023-03-29T09:18:30.877Z,13.50
2023-03-29T09:20:44.085Z,13.50
2023-03-29T09:22:55.112Z,13.60
2023-03-29T09:25:10.809Z,13.80
2023-03-29T09:27:20.136Z,13.90
2023-03-29T09:29:47.312Z,14.00
2023-03-29T09:31:51.201Z,14.10
2023-03-29T09:33:58.961Z,13.90
2023-03-29T09:36:07.954Z,13.90
2023-03-29T09:38:13.372Z,13.90
2023-03-29T09:40:20.895Z,14.00
2023-03-29T09:42:26.410Z,14.00
2023-03-29T09:44:34.266Z,14.10
2023-03-29T09:46:42.117Z,14.20
2023-03-29T09:48:46.920Z,14.20
2023-03-29T09:50:51.616Z,14.50
2023-03-29T09:52:54.428Z,14.70
2023-03-29T09:55:05.877Z,14.90
2023-03-29T09:57:13.667Z,15.10
2023-03-29T09:59:16.547Z,15.20
2023-03-29T10:01:19.744Z,15.10
2023-03-29T10:03:25.322Z,15.10
2023-03-29T10:05:32.005Z,15.20
2023-03-29T10:07:44.486Z,15.30
2023-03-29T10:09:50.531Z,15.30
2023-03-29T10:11:56.744Z,15.60
2023-03-29T10:14:03.983Z,15.70
2023-03-29T10:16:09.204Z,15.70
2023-03-29T10:18:15.061Z,15.60
2023-03-29T10:20:20.238Z,15.50
2023-03-29T10:22:25.523Z,15.60
2023-03-29T10:24:29.124Z,15.70
2023-03-29T10:26:34.482Z,15.90
2023-03-29T10:28:38.616Z,15.90
2023-03-29T10:30:43.238Z,15.80
2023-03-29T10:32:47.006Z,15.70
2023-03-29T10:34:51.962Z,15.50
2023-03-29T10:36:58.787Z,15.50
2023-03-29T10:39:14.531Z,15.50
2023-03-29T10:41:18.563Z,15.50
2023-03-29T10:43:29.819Z,15.20
2023-03-29T10:45:36.566Z,14.90
2023-03-29T10:47:46.573Z,15.00
2023-03-29T10:49:55.050Z,15.20
2023-03-29T10:51:59.372Z,15.30
2023-03-29T10:54:03.022Z,15.40
2023-03-29T10:56:24.454Z,15.50
2023-03-29T10:58:35.558Z,15.60
2023-03-29T11:00:43.401Z,15.70
2023-03-29T11:03:08.614Z,15.70
2023-03-29T11:05:20.308Z,15.80
2023-03-29T11:07:29.813Z,15.90
2023-03-29T11:09:45.931Z,15.80
2023-03-29T11:12:15.080Z,15.80
2023-03-29T11:14:29.997Z,15.70
2023-03-29T11:16:40.038Z,15.50
2023-03-29T11:18:57.783Z,15.50
2023-03-29T11:21:10.709Z,15.50
2023-03-29T11:23:29.679Z,15.70
2023-03-29T11:25:41.847Z,15.80
2023-03-29T11:27:52.253Z,15.90
2023-03-29T11:30:18.041Z,16.10
2023-03-29T11:32:30.043Z,16.10
2023-03-29T11:34:42.223Z,15.70
2023-03-29T11:36:53.929Z,15.30
2023-03-29T11:39:06.454Z,15.40
2023-03-29T11:41:16.164Z,15.80
2023-03-29T11:43:23.779Z,16.10
2023-03-29T11:45:30.509Z,16.30
2023-03-29T11:47:37.156Z,16.30
2023-03-29T11:49:44.051Z,16.30
2023-03-29T11:51:53.634Z,16.40
2023-03-29T11:54:03.285Z,16.30
2023-03-29T11:56:13.228Z,16.40
2023-03-29T11:58:22.332Z,16.70
2023-03-29T12:00:30.215Z,16.70
2023-03-29T12:02:37.748Z,16.80
2023-03-29T12:04:47.125Z,16.70
2023-03-29T12:06:57.775Z,16.70
2023-03-29T12:09:05.308Z,16.80
2023-03-29T12:11:14.087Z,16.80
2023-03-29T12:13:22.507Z,16.70
2023-03-29T12:15:29.608Z,16.80
2023-03-29T12:17:38.197Z,17.00
2023-03-29T12:19:47.718Z,17.10
2023-03-29T12:21:51.909Z,17.30
2023-03-29T12:23:55.450Z,17.30
2023-03-29T12:26:05.224Z,17.50
2023-03-29T12:28:24.720Z,17.60
2023-03-29T12:30:39.764Z,17.10
2023-03-29T12:32:59.822Z,17.20
2023-03-29T12:35:20.379Z,17.20
2023-03-29T12:37:43.246Z,17.40
2023-03-29T12:39:46.374Z,17.20
2023-03-29T12:41:51.884Z,17.30
2023-03-29T12:43:55.236Z,17.40
2023-03-29T12:46:06.370Z,17.30
2023-03-29T12:48:17.438Z,17.30
2023-03-29T12:50:28.721Z,17.20
2023-03-29T12:52:34.183Z,17.10
2023-03-29T12:54:37.000Z,16.90
2023-03-29T12:56:43.357Z,16.90
2023-03-29T12:59:06.402Z,16.90
2023-03-29T13:01:11.551Z,16.90
2023-03-29T13:03:30.852Z,16.90
2023-03-29T13:05:38.404Z,16.80
2023-03-29T13:07:48.306Z,16.80
2023-03-29T13:09:53.555Z,16.80
2023-03-29T13:11:58.687Z,16.70
2023-03-29T13:14:04.837Z,16.60
2023-03-29T13:16:14.306Z,16.50
2023-03-29T13:18:40.634Z,16.40
2023-03-29T13:20:48.192Z,16.40
2023-03-29T13:23:04.240Z,16.60
2023-03-29T13:25:17.994Z,16.70
2023-03-29T13:27:30.176Z,16.80
2023-03-29T13:29:49.281Z,17.00
2023-03-29T13:31:59.143Z,17.20
2023-03-29T13:34:07.482Z,17.40
2023-03-29T13:36:20.256Z,17.70
2023-03-29T13:38:27.643Z,17.90
2023-03-29T13:40:57.418Z,18.00
2023-03-29T13:43:02.126Z,18.00
2023-03-29T13:45:15.962Z,18.00
2023-03-29T13:47:37.962Z,18.20
2023-03-29T13:49:44.254Z,18.00
2023-03-29T13:52:05.578Z,18.10
2023-03-29T13:54:16.577Z,18.20
2023-03-29T13:56:25.787Z,18.30
2023-03-29T13:58:37.522Z,18.50
2023-03-29T14:00:46.195Z,18.50
2023-03-29T14:02:52.818Z,18.50
2023-03-29T14:04:56.186Z,18.40
2023-03-29T14:07:01.863Z,18.20
2023-03-29T14:09:08.762Z,18.20
2023-03-29T14:11:23.044Z,18.20
2023-03-29T14:13:27.153Z,18.40
2023-03-29T14:15:46.406Z,18.50
2023-03-29T14:17:49.745Z,18.50
2023-03-29T14:19:52.842Z,18.60
2023-03-29T14:21:55.976Z,18.90
2023-03-29T14:24:03.117Z,19.10
2023-03-29T14:26:10.559Z,19.20
2023-03-29T14:28:20.408Z,19.30
2023-03-29T14:30:28.296Z,19.50
2023-03-29T14:32:32.890Z,19.60
2023-03-29T14:34:35.650Z,19.70
2023-03-29T14:36:39.985Z,19.80
2023-03-29T14:38:46.159Z,19.60
2023-03-29T14:40:50.653Z,19.70
2023-03-29T14:42:53.600Z,19.70
2023-03-29T14:45:04.017Z,19.50
2023-03-29T14:47:07.197Z,19.40
2023-03-29T14:49:11.292Z,19.20
2023-03-29T14:51:14.604Z,19.20
2023-03-29T14:53:20.689Z,19.40
2023-03-29T14:55:25.113Z,19.40
2023-03-29T14:57:36.683Z,19.30
2023-03-29T14:59:42.696Z,19.50
2023-03-29T15:01:46.063Z,19.60
2023-03-29T15:03:54.980Z,19.60
2023-03-29T15:06:02.627Z,19.50
2023-03-29T15:08:10.001Z,19.50
2023-03-29T15:10:18.541Z,19.40
2023-03-29T15:12:22.826Z,19.30
2023-03-29T15:14:29.313Z,19.40
2023-03-29T15:16:32.901Z,19.50
2023-03-29T15:18:40.210Z,19.40
2023-03-29T15:20:45.010Z,19.40
2023-03-29T15:22:56.993Z,19.40
2023-03-29T15:25:01.631Z,19.40
2023-03-29T15:27:12.331Z,19.40
2023-03-29T15:29:23.362Z,19.20
2023-03-29T15:31:34.957Z,19.10
2023-03-29T15:33:39.766Z,18.90
2023-03-29T15:35:43.844Z,18.80
2023-03-29T15:37:48.273Z,18.80
2023-03-29T15:39:51.659Z,18.80
2023-03-29T15:41:56.720Z,18.90
2023-03-29T15:43:59.623Z,19.00
2023-03-29T15:46:03.173Z,19.20
2023-03-29T15:48:15.556Z,19.00
2023-03-29T15:50:18.397Z,18.90
2023-03-29T15:52:21.643Z,18.90
2023-03-29T15:54:24.778Z,18.80
2023-03-29T15:56:27.980Z,18.80
2023-03-29T15:58:32.698Z,18.80
2023-03-29T16:00:35.965Z,18.80
2023-03-29T16:02:38.925Z,18.60
2023-03-29T16:04:43.528Z,18.50
2023-03-29T16:06:48.567Z,18.40
2023-03-29T16:08:51.395Z,18.40
2023-03-29T16:10:54.417Z,18.40
2023-03-29T16:12:57.215Z,18.40
2023-03-29T16:15:00.968Z,18.30
2023-03-29T16:17:05.065Z,18.20
2023-03-29T16:19:07.966Z,18.20
2023-03-29T16:21:15.706Z,18.10
2023-03-29T16:23:18.621Z,18.00
2023-03-29T16:25:23.693Z,17.90
2023-03-29T16:27:26.683Z,17.80
2023-03-29T16:29:30.586Z,17.70
2023-03-29T16:31:33.411Z,17.60
2023-03-29T16:33:36.575Z,17.60
2023-03-29T16:35:41.132Z,17.60
2023-03-29T16:37:45.673Z,17.60
2023-03-29T16:39:48.533Z,17.50
2023-03-29T16:41:51.296Z,17.50
2023-03-29T16:43:54.407Z,17.40
2023-03-29T16:45:57.860Z,17.40
2023-03-29T16:48:01.691Z,17.30
2023-03-29T16:50:05.603Z,17.40
2023-03-29T16:52:08.631Z,17.20
2023-03-29T16:54:12.762Z,17.20
2023-03-29T16:56:16.536Z,17.10
2023-03-29T16:58:19.526Z,17.00
2023-03-29T17:00:23.066Z,17.00
2023-03-29T17:02:26.155Z,16.90
2023-03-29T17:04:29.214Z,16.90
2023-03-29T17:06:32.967Z,16.90
2023-03-29T17:08:36.735Z,16.80
2023-03-29T17:10:42.475Z,16.80
2023-03-29T17:12:45.490Z,16.80
2023-03-29T17:14:48.489Z,16.80
2023-03-29T17:16:51.477Z,16.80
2023-03-29T17:18:54.548Z,16.90
2023-03-29T17:20:59.522Z,16.80
2023-03-29T17:23:02.444Z,16.80
2023-03-29T17:25:07.371Z,16.70
2023-03-29T17:27:11.533Z,16.70
2023-03-29T17:29:14.296Z,16.80
2023-03-29T17:31:19.372Z,16.80
2023-03-29T17:33:25.985Z,16.70
2023-03-29T17:35:28.941Z,16.80
2023-03-29T17:37:31.892Z,16.70
2023-03-29T17:39:37.494Z,16.80
2023-03-29T17:41:40.486Z,16.70
2023-03-29T17:43:45.491Z,16.60
2023-03-29T17:45:52.072Z,16.60
2023-03-29T17:47:55.893Z,16.60
2023-03-29T17:49:58.779Z,16.50
2023-03-29T17:52:01.614Z,16.50
2023-03-29T17:54:04.801Z,16.40
2023-03-29T17:56:08.697Z,16.40
2023-03-29T17:58:11.801Z,16.30
2023-03-29T18:00:17.350Z,16.20
2023-03-29T18:02:22.890Z,16.20
2023-03-29T18:04:25.976Z,16.10
2023-03-29T18:06:28.988Z,16.10
2023-03-29T18:08:31.756Z,16.00
2023-03-29T18:10:35.000Z,16.00
2023-03-29T18:12:37.858Z,15.90
2023-03-29T18:14:40.661Z,15.90
2023-03-29T18:16:45.434Z,15.80
2023-03-29T18:18:48.987Z,15.70
2023-03-29T18:20:51.908Z,15.60
2023-03-29T18:22:54.643Z,15.60
2023-03-29T18:24:57.551Z,15.50
2023-03-29T18:27:00.667Z,15.50
2023-03-29T18:29:03.531Z,15.40
2023-03-29T18:31:06.676Z,15.30
2023-03-29T18:33:11.239Z,15.30
2023-03-29T18:35:14.018Z,15.30
2023-03-29T18:37:17.565Z,15.20
2023-03-29T18:39:20.444Z,15.10
2023-03-29T18:41:24.423Z,15.10
2023-03-29T18:43:27.178Z,15.10
2023-03-29T18:45:30.410Z,15.00
2023-03-29T18:47:33.636Z,15.00
2023-03-29T18:49:37.914Z,15.00
2023-03-29T18:51:42.095Z,15.00
2023-03-29T18:53:45.192Z,15.00
2023-03-29T18:55:48.266Z,15.00
2023-03-29T18:57:51.347Z,15.00
2023-03-29T18:59:54.122Z,15.00
2023-03-29T19:01:57.242Z,15.00
2023-03-29T19:04:00.119Z,15.00
2023-03-29T19:06:05.026Z,15.10
2023-03-29T19:08:08.909Z,15.00
2023-03-29T19:10:12.079Z,15.00
2023-03-29T19:12:14.972Z,15.00
2023-03-29T19:14:23.683Z,15.10
2023-03-29T19:16:27.456Z,15.00
2023-03-29T19:18:30.415Z,15.00
2023-03-29T19:20:33.872Z,15.00
2023-03-29T19:22:38.287Z,14.90
2023-03-29T19:24:41.298Z,15.00
2023-03-29T19:26:45.430Z,14.90
2023-03-29T19:28:48.306Z,14.90
2023-03-29T19:30:51.468Z,14.90
2023-03-29T19:32:54.427Z,14.90
2023-03-29T19:34:57.309Z,14.90
2023-03-29T19:37:00.944Z,14.90
2023-03-29T19:39:05.512Z,14.90
2023-03-29T19:41:08.793Z,14.90
2023-03-29T19:43:16.403Z,14.90
2023-03-29T19:45:19.304Z,14.90
2023-03-29T19:47:22.214Z,14.90
2023-03-29T19:49:25.221Z,14.80
2023-03-29T19:51:29.398Z,14.70
2023-03-29T19:53:33.234Z,14.80
2023-03-29T19:55:39.685Z,14.80
2023-03-29T19:57:42.475Z,14.90
2023-03-29T19:59:45.376Z,14.90
2023-03-29T20:01:51.349Z,15.00
2023-03-29T20:03:54.804Z,15.00
2023-03-29T20:05:58.286Z,15.10
2023-03-29T20:08:01.126Z,15.10
2023-03-29T20:10:04.227Z,15.10
2023-03-29T20:12:08.835Z,15.20
2023-03-29T20:14:11.662Z,15.20
2023-03-29T20:16:16.555Z,15.20
2023-03-29T20:18:19.477Z,15.20
2023-03-29T20:20:24.109Z,15.20
2023-03-29T20:22:27.814Z,15.30
2023-03-29T20:24:31.389Z,15.30
2023-03-29T20:26:34.280Z,15.20
2023-03-29T20:28:38.570Z,15.20
2023-03-29T20:30:42.393Z,15.20
2023-03-29T20:32:45.466Z,15.30
2023-03-29T20:34:48.498Z,15.30
2023-03-29T20:36:55.296Z,15.30
2023-03-29T20:38:59.197Z,15.30
2023-03-29T20:41:02.860Z,15.30
2023-03-29T20:43:07.424Z,15.30
2023-03-29T20:45:18.334Z,15.40
2023-03-29T20:47:21.531Z,15.40
2023-03-29T20:49:26.553Z,15.40
2023-03-29T20:51:30.389Z,15.40
2023-03-29T20:53:34.208Z,15.40
2023-03-29T20:55:38.986Z,15.50
2023-03-29T20:57:42.209Z,15.50
2023-03-29T20:59:46.050Z,15.50
2023-03-29T21:01:50.361Z,15.60
2023-03-29T21:03:53.452Z,15.50
2023-03-29T21:05:58.191Z,15.50
2023-03-29T21:08:02.452Z,15.50
2023-03-29T21:10:05.705Z,15.50
2023-03-29T21:12:08.867Z,15.60
2023-03-29T21:14:11.823Z,15.50
2023-03-29T21:16:15.555Z,15.60
2023-03-29T21:18:19.974Z,15.60
2023-03-29T21:20:24.222Z,15.50
2023-03-29T21:22:29.809Z,15.50
2023-03-29T21:24:33.437Z,15.50
2023-03-29T21:26:36.312Z,15.50
2023-03-29T21:28:39.080Z,15.50
2023-03-29T21:30:42.090Z,15.50
2023-03-29T21:32:44.907Z,15.50
2023-03-29T21:34:49.008Z,15.50
2023-03-29T21:36:51.797Z,15.50
2023-03-29T21:38:54.611Z,15.50
2023-03-29T21:40:58.082Z,15.50
2023-03-29T21:43:00.915Z,15.50
2023-03-29T21:45:04.574Z,15.50
2023-03-29T21:47:07.463Z,15.50
2023-03-29T21:49:10.514Z,15.50
2023-03-29T21:51:14.924Z,15.40
2023-03-29T21:53:18.309Z,15.40
2023-03-29T21:55:21.124Z,15.40
2023-03-29T21:57:23.990Z,15.40
2023-03-29T21:59:27.854Z,15.50
2023-03-29T22:01:31.207Z,15.50
2023-03-29T22:03:34.295Z,15.50
2023-03-29T22:05:37.649Z,15.40
2023-03-29T22:07:41.764Z,15.40
2023-03-29T22:09:46.509Z,15.40
2023-03-29T22:11:50.185Z,15.30
2023-03-29T22:13:53.436Z,15.30
2023-03-29T22:15:59.104Z,15.30
2023-03-29T22:18:02.125Z,15.30
2023-03-29T22:20:13.813Z,15.30
2023-03-29T22:22:17.578Z,15.30
2023-03-29T22:24:21.674Z,15.30
2023-03-29T22:26:27.525Z,15.30
2023-03-29T22:28:30.754Z,15.30
2023-03-29T22:30:33.873Z,15.30
2023-03-29T22:32:36.766Z,15.30
2023-03-29T22:34:40.393Z,15.30
2023-03-29T22:36:43.337Z,15.20
2023-03-29T22:38:46.986Z,15.30
2023-03-29T22:40:51.269Z,15.40
2023-03-29T22:42:54.083Z,15.30
2023-03-29T22:44:57.147Z,15.30
2023-03-29T22:46:59.887Z,15.30
2023-03-29T22:49:02.817Z,15.30
2023-03-29T22:51:06.554Z,15.30
2023-03-29T22:53:10.251Z,15.30
2023-03-29T22:55:13.011Z,15.20
2023-03-29T22:57:17.184Z,15.10
2023-03-29T22:59:20.110Z,15.10
2023-03-29T23:01:22.877Z,15.10
2023-03-29T23:03:26.567Z,15.20
2023-03-29T23:05:29.473Z,15.20
2023-03-29T23:07:36.259Z,15.30
2023-03-29T23:09:39.071Z,15.30
2023-03-29T23:11:41.974Z,15.30
2023-03-29T23:13:48.602Z,15.30
2023-03-29T23:15:52.674Z,15.40
2023-03-29T23:17:55.651Z,15.40
2023-03-29T23:19:58.445Z,15.30
2023-03-29T23:22:01.277Z,15.40
2023-03-29T23:24:04.239Z,15.40
2023-03-29T23:26:08.441Z,15.40
2023-03-29T23:28:11.341Z,15.40
2023-03-29T23:30:16.010Z,15.40
2023-03-29T23:32:18.798Z,15.40
2023-03-29T23:34:22.125Z,15.50
2023-03-29T23:36:27.252Z,15.50
2023-03-29T23:38:30.393Z,15.50
2023-03-29T23:40:34.348Z,15.50
2023-03-29T23:42:39.121Z,15.50
2023-03-29T23:44:41.935Z,15.50
2023-03-29T23:46:46.132Z,15.40
2023-03-29T23:48:50.747Z,15.50
2023-03-29T23:51:09.831Z,15.40
2023-03-29T23:53:12.774Z,15.30
2023-03-29T23:55:16.141Z,15.30
2023-03-29T23:57:19.440Z,15.30
2023-03-29T23:59:29.813Z,15.40
